createdAt,value
2019-06-10T00:01:31.933Z,19.50
2019-06-10T00:04:03.504Z,19.40
2019-06-10T00:06:31.152Z,19.40
2019-06-10T00:09:03.081Z,19.40
2019-06-10T00:11:31.533Z,19.30
2019-06-10T00:14:02.420Z,19.30
2019-06-10T00:16:30.862Z,19.30
2019-06-10T00:19:02.802Z,19.30
2019-06-10T00:21:30.783Z,19.20
2019-06-10T00:24:02.146Z,19.20
2019-06-10T00:26:30.731Z,19.20
2019-06-10T00:29:00.649Z,19.20
2019-06-10T00:31:31.289Z,19.20
2019-06-10T00:34:02.953Z,19.10
2019-06-10T00:36:30.856Z,19.20
2019-06-10T00:39:02.470Z,19.20
2019-06-10T00:41:33.084Z,19.20
2019-06-10T00:44:03.698Z,19.20
2019-06-10T00:46:31.817Z,19.20
2019-06-10T00:49:03.947Z,19.20
2019-06-10T00:51:31.409Z,19.20
2019-06-10T00:54:03.361Z,19.20
2019-06-10T00:56:30.871Z,19.20
2019-06-10T00:59:01.015Z,19.20
2019-06-10T01:01:31.265Z,19.20
2019-06-10T01:04:01.876Z,19.10
2019-06-10T01:06:31.785Z,19.20
2019-06-10T01:09:00.976Z,19.10
2019-06-10T01:11:31.107Z,19.10
2019-06-10T01:14:01.491Z,19.10
2019-06-10T01:16:31.820Z,19.10
2019-06-10T01:19:01.529Z,19.10
2019-06-10T01:21:31.292Z,19.10
2019-06-10T01:24:01.167Z,19.10
2019-06-10T01:26:31.020Z,19.10
2019-06-10T01:29:00.982Z,19.10
2019-06-10T01:31:31.698Z,19.10
2019-06-10T01:34:00.722Z,19.10
2019-06-10T01:36:31.212Z,19.10
2019-06-10T01:39:01.503Z,19.10
2019-06-10T01:41:30.601Z,19.10
2019-06-10T01:44:01.560Z,19.10
2019-06-10T01:46:31.647Z,19.10
2019-06-10T01:49:00.778Z,19.10
2019-06-10T01:51:31.621Z,19.10
2019-06-10T01:54:01.308Z,19.10
2019-06-10T01:56:31.477Z,19.10
2019-06-10T01:59:01.489Z,19.10
2019-06-10T02:01:43.818Z,19.00
2019-06-10T02:04:14.916Z,19.00
2019-06-10T02:06:42.713Z,19.00
2019-06-10T02:09:13.396Z,19.00
2019-06-10T02:11:41.686Z,19.00
2019-06-10T02:14:14.711Z,19.00
2019-06-10T02:16:41.451Z,19.00
2019-06-10T02:19:12.947Z,19.00
2019-06-10T02:21:41.713Z,19.00
2019-06-10T02:24:12.769Z,19.00
2019-06-10T02:26:41.165Z,19.00
2019-06-10T02:29:12.480Z,19.00
2019-06-10T02:31:43.248Z,19.00
2019-06-10T02:34:13.262Z,19.00
2019-06-10T02:36:44.235Z,19.00
2019-06-10T02:39:13.342Z,19.00
2019-06-10T02:41:44.435Z,18.90
2019-06-10T02:44:16.349Z,18.90
2019-06-10T02:46:43.994Z,18.90
2019-06-10T02:49:26.591Z,18.90
2019-06-10T02:51:43.669Z,18.90
2019-06-10T02:54:14.020Z,18.90
2019-06-10T02:56:44.278Z,18.90
2019-06-10T02:59:13.337Z,18.90
2019-06-10T03:01:43.889Z,18.90
2019-06-10T03:04:13.866Z,18.90
2019-06-10T03:06:44.787Z,18.90
2019-06-10T03:09:14.115Z,18.90
2019-06-10T03:11:44.852Z,18.90
2019-06-10T03:14:13.274Z,19.00
2019-06-10T03:16:49.570Z,18.90
2019-06-10T03:19:34.367Z,18.90
2019-06-10T03:21:48.292Z,19.00
2019-06-10T03:24:17.062Z,19.00
2019-06-10T03:26:45.565Z,19.00
2019-06-10T03:29:14.037Z,19.00
2019-06-10T03:31:47.804Z,19.00
2019-06-10T03:34:14.691Z,19.00
2019-06-10T03:36:44.093Z,19.10
2019-06-10T03:39:13.277Z,19.10
2019-06-10T03:41:42.375Z,19.20
2019-06-10T03:44:13.189Z,19.10
2019-06-10T03:46:43.111Z,19.10
2019-06-10T03:49:12.628Z,19.30
2019-06-10T03:51:42.813Z,19.30
2019-06-10T03:54:13.173Z,19.30
2019-06-10T03:56:43.001Z,19.40
2019-06-10T03:59:12.405Z,19.40
2019-06-10T04:01:42.586Z,19.50
2019-06-10T04:04:13.034Z,19.50
2019-06-10T04:06:44.199Z,19.50
2019-06-10T04:09:12.129Z,19.60
2019-06-10T04:11:43.131Z,19.60
2019-06-10T04:14:13.057Z,19.60
2019-06-10T04:16:43.364Z,19.70
2019-06-10T04:19:13.152Z,19.70
2019-06-10T04:21:43.328Z,19.70
2019-06-10T04:24:12.867Z,19.80
2019-06-10T04:26:43.467Z,19.80
2019-06-10T04:29:12.906Z,19.80
2019-06-10T04:31:42.529Z,19.80
2019-06-10T04:34:12.411Z,19.90
2019-06-10T04:36:42.383Z,19.90
2019-06-10T04:39:12.489Z,19.90
2019-06-10T04:41:42.634Z,20.00
2019-06-10T04:44:13.232Z,20.00
2019-06-10T04:46:42.761Z,20.00
2019-06-10T04:49:13.206Z,20.10
2019-06-10T04:51:43.553Z,20.10
2019-06-10T04:54:13.374Z,20.20
2019-06-10T04:56:42.851Z,20.30
2019-06-10T04:59:12.672Z,20.50
2019-06-10T05:01:42.666Z,20.60
2019-06-10T05:04:12.562Z,20.70
2019-06-10T05:06:42.390Z,20.80
2019-06-10T05:09:12.467Z,21.00
2019-06-10T05:11:43.068Z,21.20
2019-06-10T05:14:13.303Z,21.40
2019-06-10T05:16:43.070Z,21.50
2019-06-10T05:19:12.876Z,21.50
2019-06-10T05:21:42.386Z,21.50
2019-06-10T05:24:12.509Z,21.50
2019-06-10T05:26:42.514Z,21.50
2019-06-10T05:29:12.116Z,21.50
2019-06-10T05:31:43.429Z,21.50
2019-06-10T05:34:13.121Z,21.40
2019-06-10T05:36:43.700Z,21.40
2019-06-10T05:39:12.197Z,21.40
2019-06-10T05:41:43.090Z,21.40
2019-06-10T05:44:13.175Z,21.40
2019-06-10T05:46:43.608Z,21.60
2019-06-10T05:49:12.522Z,21.50
2019-06-10T05:51:42.415Z,21.50
2019-06-10T05:54:12.750Z,21.60
2019-06-10T05:56:43.296Z,21.60
2019-06-10T05:59:12.336Z,21.60
2019-06-10T06:01:43.245Z,21.60
2019-06-10T06:04:12.695Z,21.60
2019-06-10T06:06:44.387Z,21.60
2019-06-10T06:09:12.942Z,21.60
2019-06-10T06:11:43.112Z,21.70
2019-06-10T06:14:13.289Z,21.70
2019-06-10T06:16:43.223Z,21.60
2019-06-10T06:19:12.671Z,21.70
2019-06-10T06:21:46.596Z,21.70
2019-06-10T06:24:12.904Z,21.80
2019-06-10T06:26:43.182Z,21.80
2019-06-10T06:29:13.046Z,21.80
2019-06-10T06:31:42.951Z,21.80
2019-06-10T06:34:13.909Z,21.90
2019-06-10T06:36:42.491Z,22.00
2019-06-10T06:39:12.855Z,22.10
2019-06-10T06:41:42.706Z,22.20
2019-06-10T06:44:12.957Z,22.30
2019-06-10T06:46:42.890Z,22.40
2019-06-10T06:49:12.835Z,22.50
2019-06-10T06:51:54.064Z,22.60
2019-06-10T06:54:12.534Z,22.70
2019-06-10T06:56:43.675Z,22.70
2019-06-10T06:59:13.157Z,22.80
2019-06-10T07:01:44.287Z,22.90
2019-06-10T07:04:13.690Z,22.90
2019-06-10T07:06:43.413Z,22.90
2019-06-10T07:09:13.471Z,22.90
2019-06-10T07:11:45.102Z,23.00
2019-06-10T07:14:14.110Z,23.00
2019-06-10T07:16:46.016Z,23.10
2019-06-10T07:19:13.264Z,23.10
2019-06-10T07:22:02.731Z,23.30
2019-06-10T07:24:12.647Z,23.30
2019-06-10T07:26:45.316Z,23.40
2019-06-10T07:29:13.232Z,23.50
2019-06-10T07:31:45.900Z,23.80
2019-06-10T07:34:12.981Z,23.90
2019-06-10T07:36:44.060Z,24.20
2019-06-10T07:39:13.405Z,24.30
2019-06-10T07:41:47.052Z,24.40
2019-06-10T07:44:12.654Z,24.70
2019-06-10T07:46:43.807Z,24.90
2019-06-10T07:49:13.480Z,25.20
2019-06-10T07:51:45.626Z,25.40
2019-06-10T07:54:12.426Z,25.50
2019-06-10T07:56:47.302Z,25.70
2019-06-10T07:59:12.910Z,25.90
2019-06-10T08:01:48.408Z,26.00
2019-06-10T08:04:12.193Z,26.30
2019-06-10T08:06:44.138Z,26.50
2019-06-10T08:09:12.651Z,26.60
2019-06-10T08:11:44.853Z,26.60
2019-06-10T08:14:12.994Z,26.70
2019-06-10T08:16:44.799Z,26.90
2019-06-10T08:19:34.908Z,27.00
2019-06-10T08:21:47.027Z,27.20
2019-06-10T08:24:12.779Z,27.30
2019-06-10T08:26:43.972Z,27.50
2019-06-10T08:29:12.681Z,27.80
2019-06-10T08:31:44.487Z,27.80
2019-06-10T08:34:13.419Z,28.10
2019-06-10T08:36:46.316Z,28.30
2019-06-10T08:39:15.746Z,28.40
2019-06-10T08:41:45.573Z,28.50
2019-06-10T08:44:12.805Z,28.70
2019-06-10T08:46:43.646Z,28.90
2019-06-10T08:49:12.695Z,29.20
2019-06-10T08:51:45.453Z,29.30
2019-06-10T08:54:12.784Z,29.40
2019-06-10T08:56:46.786Z,29.50
2019-06-10T08:59:12.405Z,29.60
2019-06-10T09:01:46.051Z,29.80
2019-06-10T09:04:13.345Z,29.90
2019-06-10T09:06:47.169Z,30.00
2019-06-10T09:09:12.893Z,30.20
2019-06-10T09:11:46.906Z,30.30
2019-06-10T09:14:12.639Z,30.40
2019-06-10T09:16:44.416Z,30.60
2019-06-10T09:19:13.110Z,30.70
2019-06-10T09:21:48.148Z,30.90
2019-06-10T09:24:12.904Z,31.00
2019-06-10T09:26:45.045Z,31.20
2019-06-10T09:29:13.432Z,31.20
2019-06-10T09:31:46.726Z,31.50
2019-06-10T09:34:12.786Z,31.70
2019-06-10T09:36:46.232Z,31.80
2019-06-10T09:39:12.543Z,32.00
2019-06-10T09:41:50.298Z,32.00
2019-06-10T09:44:13.060Z,32.20
2019-06-10T09:46:47.011Z,32.30
2019-06-10T09:49:14.026Z,32.20
2019-06-10T09:51:45.826Z,32.40
2019-06-10T09:54:12.877Z,32.60
2019-06-10T09:56:44.078Z,32.70
2019-06-10T09:59:14.525Z,32.80
2019-06-10T10:01:47.237Z,32.90
2019-06-10T10:04:13.442Z,33.00
2019-06-10T10:06:47.634Z,33.20
2019-06-10T10:09:13.582Z,33.30
2019-06-10T10:11:44.465Z,33.20
2019-06-10T10:14:16.047Z,33.10
2019-06-10T10:16:47.778Z,33.30
2019-06-10T10:19:13.224Z,33.30
2019-06-10T10:21:46.876Z,33.30
2019-06-10T10:24:14.899Z,33.40
2019-06-10T10:26:45.242Z,33.20
2019-06-10T10:29:13.144Z,33.20
2019-06-10T10:31:45.070Z,33.10
2019-06-10T10:34:13.528Z,33.30
2019-06-10T10:36:44.946Z,33.30
2019-06-10T10:39:14.009Z,33.30
2019-06-10T10:41:45.234Z,33.00
2019-06-10T10:44:14.522Z,32.90
2019-06-10T10:46:44.221Z,33.00
2019-06-10T10:49:14.260Z,33.20
2019-06-10T10:51:43.129Z,33.30
2019-06-10T10:54:22.311Z,33.40
2019-06-10T10:56:44.669Z,33.50
2019-06-10T10:59:13.308Z,33.50
2019-06-10T11:01:44.011Z,33.70
2019-06-10T11:04:13.280Z,33.50
2019-06-10T11:06:44.280Z,33.60
2019-06-10T11:09:13.117Z,33.50
2019-06-10T11:11:43.983Z,33.50
2019-06-10T11:14:14.317Z,33.60
2019-06-10T11:16:43.296Z,33.50
2019-06-10T11:19:12.988Z,33.70
2019-06-10T11:21:42.610Z,33.70
2019-06-10T11:24:14.179Z,33.60
2019-06-10T11:26:43.187Z,33.80
2019-06-10T11:29:12.151Z,33.90
2019-06-10T11:31:42.606Z,33.80
2019-06-10T11:34:11.584Z,33.70
2019-06-10T11:36:42.371Z,33.70
2019-06-10T11:39:13.180Z,33.60
2019-06-10T11:41:42.885Z,33.40
2019-06-10T11:44:10.993Z,33.40
2019-06-10T11:46:43.060Z,33.40
2019-06-10T11:49:12.620Z,33.50
2019-06-10T11:51:41.337Z,33.50
2019-06-10T11:54:12.637Z,33.60
2019-06-10T11:56:42.039Z,33.70
2019-06-10T11:59:13.439Z,33.90
2019-06-10T12:01:42.623Z,33.90
2019-06-10T12:04:12.931Z,34.00
2019-06-10T12:06:42.551Z,34.10
2019-06-10T12:09:13.734Z,34.30
2019-06-10T12:11:43.748Z,34.20
2019-06-10T12:14:12.845Z,34.30
2019-06-10T12:19:12.739Z,34.30
2019-06-10T12:21:43.470Z,34.20
2019-06-10T12:24:12.638Z,34.10
2019-06-10T12:26:43.454Z,34.30
2019-06-10T12:29:12.507Z,34.40
2019-06-10T12:31:42.864Z,34.30
2019-06-10T12:34:12.543Z,34.30
2019-06-10T12:36:41.425Z,34.10
2019-06-10T12:39:14.870Z,34.00
2019-06-10T12:41:42.966Z,33.80
2019-06-10T12:44:12.431Z,33.80
2019-06-10T12:46:43.093Z,33.70
2019-06-10T12:49:13.119Z,33.80
2019-06-10T12:51:42.534Z,33.60
2019-06-10T12:54:13.152Z,33.70
2019-06-10T12:56:42.354Z,33.70
2019-06-10T12:59:13.563Z,33.60
2019-06-10T13:01:44.709Z,33.50
2019-06-10T13:04:13.721Z,33.60
2019-06-10T13:06:45.962Z,33.60
2019-06-10T13:09:14.585Z,33.50
2019-06-10T13:11:43.447Z,33.60
2019-06-10T13:14:13.030Z,33.80
2019-06-10T13:16:43.338Z,34.00
2019-06-10T13:19:13.200Z,34.20
2019-06-10T13:21:42.664Z,34.20
2019-06-10T13:24:13.248Z,34.30
2019-06-10T13:26:43.209Z,34.40
2019-06-10T13:29:16.805Z,34.30
2019-06-10T13:31:43.569Z,34.30
2019-06-10T13:34:14.737Z,34.30
2019-06-10T13:36:43.121Z,34.30
2019-06-10T13:39:13.502Z,34.40
2019-06-10T13:41:43.773Z,34.40
2019-06-10T13:44:16.474Z,34.60
2019-06-10T13:46:53.136Z,34.60
2019-06-10T13:49:25.212Z,34.50
2019-06-10T13:51:52.971Z,34.60
2019-06-10T13:54:22.567Z,34.50
2019-06-10T13:56:52.345Z,34.50
2019-06-10T13:59:22.915Z,34.50
2019-06-10T14:01:53.146Z,34.40
2019-06-10T14:04:25.412Z,34.20
2019-06-10T14:06:56.788Z,34.30
2019-06-10T14:09:22.942Z,34.20
2019-06-10T14:11:52.630Z,34.10
2019-06-10T14:14:22.971Z,34.00
2019-06-10T14:16:53.833Z,34.00
2019-06-10T14:19:23.197Z,33.80
2019-06-10T14:21:52.001Z,33.80
2019-06-10T14:24:22.773Z,33.80
2019-06-10T14:26:52.977Z,33.80
2019-06-10T14:29:20.981Z,33.70
2019-06-10T14:31:49.706Z,33.70
2019-06-10T14:34:18.810Z,33.60
2019-06-10T14:36:47.758Z,33.50
2019-06-10T14:39:16.417Z,33.40
2019-06-10T14:41:44.905Z,33.20
2019-06-10T14:44:16.103Z,33.20
2019-06-10T14:46:43.744Z,33.20
2019-06-10T14:49:14.981Z,33.20
2019-06-10T14:51:43.093Z,33.00
2019-06-10T14:54:14.649Z,33.10
2019-06-10T14:56:53.019Z,33.00
2019-06-10T14:59:14.955Z,32.70
2019-06-10T15:01:42.753Z,32.60
2019-06-10T15:04:14.376Z,32.50
2019-06-10T15:06:43.154Z,32.40
2019-06-10T15:09:11.901Z,32.30
2019-06-10T15:11:42.657Z,32.30
2019-06-10T15:14:14.235Z,32.30
2019-06-10T15:16:43.535Z,32.40
2019-06-10T15:19:18.398Z,32.50
2019-06-10T15:21:42.850Z,32.50
2019-06-10T15:24:12.010Z,32.50
2019-06-10T15:26:42.286Z,32.40
2019-06-10T15:29:11.828Z,32.50
2019-06-10T15:31:42.821Z,32.60
2019-06-10T15:34:15.007Z,32.50
2019-06-10T15:36:43.270Z,32.40
2019-06-10T15:39:16.154Z,32.40
2019-06-10T15:41:42.889Z,32.30
2019-06-10T15:44:14.551Z,32.30
2019-06-10T15:46:43.082Z,32.30
2019-06-10T15:49:15.740Z,32.20
2019-06-10T15:51:43.549Z,32.10
2019-06-10T15:54:14.029Z,32.00
2019-06-10T15:56:51.885Z,32.00
2019-06-10T15:59:14.907Z,31.90
2019-06-10T16:01:43.109Z,32.00
2019-06-10T16:04:14.058Z,31.90
2019-06-10T16:06:42.491Z,31.80
2019-06-10T16:09:12.553Z,31.80
2019-06-10T16:11:43.631Z,31.90
2019-06-10T16:14:12.555Z,32.00
2019-06-10T16:16:43.248Z,31.90
2019-06-10T16:19:13.350Z,31.90
2019-06-10T16:21:42.875Z,31.80
2019-06-10T16:24:13.661Z,31.70
2019-06-10T16:26:41.919Z,31.70
2019-06-10T16:29:12.325Z,31.60
2019-06-10T16:31:42.611Z,31.60
2019-06-10T16:34:12.764Z,31.60
2019-06-10T16:36:42.741Z,31.60
2019-06-10T16:39:12.498Z,31.50
2019-06-10T16:41:43.025Z,31.40
2019-06-10T16:44:13.655Z,31.40
2019-06-10T16:46:43.095Z,31.40
2019-06-10T16:49:12.807Z,31.40
2019-06-10T16:51:42.894Z,31.30
2019-06-10T16:54:13.057Z,31.30
2019-06-10T16:56:43.517Z,31.30
2019-06-10T16:59:12.335Z,31.20
2019-06-10T17:01:42.823Z,31.10
2019-06-10T17:04:12.511Z,31.10
2019-06-10T17:06:42.180Z,31.10
2019-06-10T17:21:37.028Z,30.80
2019-06-10T17:24:12.787Z,30.70
2019-06-10T17:30:13.193Z,30.60
2019-06-10T17:32:42.649Z,30.50
2019-06-10T17:35:12.645Z,30.50
2019-06-10T17:37:43.180Z,30.50
2019-06-10T17:40:13.222Z,30.40
2019-06-10T17:42:42.815Z,30.40
2019-06-10T17:45:12.812Z,30.30
2019-06-10T17:47:42.669Z,30.20
2019-06-10T17:50:15.598Z,30.20
2019-06-10T17:52:44.274Z,30.10
2019-06-10T17:55:13.157Z,30.10
2019-06-10T17:57:42.996Z,30.00
2019-06-10T18:00:24.320Z,30.00
2019-06-10T18:03:33.417Z,30.00
2019-06-10T18:06:02.808Z,29.90
2019-06-10T18:08:34.577Z,29.80
2019-06-10T18:11:03.270Z,29.70
2019-06-10T19:36:41.858Z,26.40
2019-06-10T19:39:12.970Z,26.30
2019-06-10T19:41:45.739Z,26.20
2019-06-10T19:44:13.066Z,26.20
2019-06-10T19:46:43.035Z,26.10
2019-06-10T19:49:13.370Z,26.00
2019-06-10T19:51:44.878Z,25.90
2019-06-10T19:54:12.795Z,25.90
2019-06-10T19:56:41.792Z,25.80
2019-06-10T19:59:12.568Z,25.70
2019-06-10T20:01:45.790Z,25.70
2019-06-10T20:04:13.718Z,25.60
2019-06-10T20:06:44.385Z,25.50
2019-06-10T20:09:13.164Z,25.50
2019-06-10T20:11:45.620Z,25.40
2019-06-10T20:14:12.828Z,25.30
2019-06-10T20:16:42.977Z,25.30
2019-06-10T20:19:12.971Z,25.20
2019-06-10T20:21:43.562Z,25.20
2019-06-10T20:24:12.471Z,25.10
2019-06-10T20:26:43.268Z,25.10
2019-06-10T20:29:12.621Z,25.00
2019-06-10T20:31:45.184Z,25.00
2019-06-10T20:34:13.264Z,24.90
2019-06-10T20:36:43.492Z,24.90
2019-06-10T20:39:12.256Z,24.80
2019-06-10T20:41:44.272Z,24.80
2019-06-10T20:44:13.102Z,24.70
2019-06-10T20:46:43.516Z,24.70
2019-06-10T20:49:13.512Z,25.60
2019-06-10T20:51:58.073Z,24.50
2019-06-10T20:54:12.784Z,24.50
2019-06-10T20:56:45.504Z,24.70
2019-06-10T20:59:13.135Z,24.40
2019-06-10T21:01:44.496Z,24.40
2019-06-10T21:04:13.156Z,24.30
2019-06-10T21:06:43.618Z,24.20
2019-06-10T21:09:13.418Z,24.20
2019-06-10T21:11:45.132Z,24.10
2019-06-10T21:14:12.411Z,24.00
2019-06-10T21:16:42.046Z,23.90
2019-06-10T21:19:10.805Z,23.90
2019-06-10T21:21:40.405Z,23.80
2019-06-10T21:24:09.567Z,23.80
2019-06-10T21:26:38.159Z,23.70
2019-06-10T21:29:06.769Z,23.70
2019-06-10T21:31:35.322Z,23.60
2019-06-10T21:34:03.966Z,23.60
2019-06-10T21:36:32.439Z,23.50
2019-06-10T21:39:02.746Z,23.50
2019-06-10T21:41:31.285Z,23.50
2019-06-10T21:43:59.891Z,23.40
2019-06-10T21:46:29.955Z,23.30
2019-06-10T21:48:58.551Z,23.30
2019-06-10T21:51:27.029Z,23.30
2019-06-10T21:53:55.645Z,23.30
2019-06-10T21:56:24.230Z,23.30
2019-06-10T21:58:55.037Z,23.30
2019-06-10T22:01:23.113Z,23.20
2019-06-10T22:03:58.721Z,23.20
2019-06-10T22:06:22.833Z,23.20
2019-06-10T22:08:54.485Z,23.20
2019-06-10T22:11:23.572Z,23.20
2019-06-10T22:13:53.349Z,23.20
2019-06-10T22:16:22.743Z,23.20
2019-06-10T22:18:52.623Z,23.10
2019-06-10T22:21:22.657Z,23.10
2019-06-10T22:23:53.554Z,23.10
2019-06-10T22:26:22.502Z,23.10
2019-06-10T22:28:54.032Z,23.10
2019-06-10T22:31:23.541Z,23.10
2019-06-10T22:33:54.270Z,23.00
2019-06-10T22:36:23.161Z,23.00
2019-06-10T22:38:55.792Z,23.00
2019-06-10T22:41:22.569Z,23.00
2019-06-10T22:43:52.228Z,23.00
2019-06-10T22:46:23.190Z,22.90
2019-06-10T22:48:53.461Z,22.90
2019-06-10T22:51:22.679Z,22.90
2019-06-10T22:53:54.541Z,22.90
2019-06-10T22:56:21.696Z,22.80
2019-06-10T22:58:52.717Z,22.90
2019-06-10T23:01:31.655Z,22.90
2019-06-10T23:03:52.013Z,22.80
2019-06-10T23:06:23.039Z,22.80
2019-06-10T23:08:53.378Z,22.80
2019-06-10T23:11:23.851Z,22.80
2019-06-10T23:13:53.850Z,22.70
2019-06-10T23:16:22.257Z,22.70
2019-06-10T23:18:53.178Z,22.80
2019-06-10T23:21:21.182Z,22.80
2019-06-10T23:23:52.197Z,22.70
2019-06-10T23:26:22.421Z,22.70
2019-06-10T23:28:52.780Z,22.70
2019-06-10T23:31:22.858Z,22.60
2019-06-10T23:33:53.469Z,22.60
2019-06-10T23:36:23.353Z,22.60
2019-06-10T23:38:51.127Z,22.60
2019-06-10T23:41:22.156Z,22.60
2019-06-10T23:43:50.934Z,22.60
2019-06-10T23:46:19.577Z,22.60
2019-06-10T23:48:48.198Z,22.60
2019-06-10T23:51:16.826Z,22.60
2019-06-10T23:53:45.383Z,22.60
2019-06-10T23:56:14.007Z,22.60
2019-06-10T23:58:43.317Z,22.50
